createdAt,value
2023-03-01T00:01:43.541Z,97295.19
2023-03-01T00:06:35.290Z,97290.50
2023-03-01T00:11:30.362Z,97286.06
2023-03-01T00:16:29.504Z,97290.09
2023-03-01T00:21:23.074Z,97288.81
2023-03-01T00:26:16.159Z,97285.56
2023-03-01T00:31:15.812Z,97277.81
2023-03-01T00:36:08.250Z,97281.09
2023-03-01T00:41:09.740Z,97279.13
2023-03-01T00:46:13.472Z,97272.34
2023-03-01T00:51:21.422Z,97264.28
2023-03-01T00:56:15.699Z,97277.69
2023-03-01T01:01:18.651Z,97265.88
2023-03-01T01:06:19.789Z,97266.56
2023-03-01T01:11:12.901Z,97243.78
2023-03-01T01:16:05.122Z,97238.13
2023-03-01T01:20:56.858Z,97237.16
2023-03-01T01:25:48.544Z,97232.94
2023-03-01T01:30:40.208Z,97223.91
2023-03-01T01:35:31.898Z,97224.41
2023-03-01T01:40:23.575Z,97211.97
2023-03-01T01:45:35.698Z,97208.41
2023-03-01T01:50:28.476Z,97198.75
2023-03-01T01:55:28.369Z,97203.22
2023-03-01T02:00:27.881Z,97202.13
2023-03-01T02:05:26.989Z,97195.00
2023-03-01T02:10:19.002Z,97185.31
2023-03-01T02:15:11.319Z,97178.03
2023-03-01T02:20:17.564Z,97176.88
2023-03-01T02:25:19.573Z,97168.03
2023-03-01T02:30:13.162Z,97179.16
2023-03-01T02:35:07.372Z,97170.31
2023-03-01T02:40:06.262Z,97157.84
2023-03-01T02:44:58.000Z,97171.44
2023-03-01T02:49:49.702Z,97162.84
2023-03-01T02:55:02.913Z,97156.72
2023-03-01T03:05:12.627Z,97136.03
2023-03-01T03:10:08.523Z,97145.41
2023-03-01T03:20:11.911Z,97149.94
2023-03-01T03:25:03.855Z,97138.97
2023-03-01T03:29:55.562Z,97138.66
2023-03-01T03:34:47.244Z,97123.09
2023-03-01T03:39:38.912Z,97136.38
2023-03-01T03:44:30.627Z,97145.28
2023-03-01T03:49:22.398Z,97144.44
2023-03-01T03:54:14.338Z,97135.09
2023-03-01T03:59:06.784Z,97142.84
2023-03-01T04:04:04.879Z,97131.66
2023-03-01T04:08:59.206Z,97128.44
2023-03-01T04:13:53.747Z,97133.59
2023-03-01T04:18:46.442Z,97125.19
2023-03-01T04:23:38.883Z,97126.19
2023-03-01T04:28:46.632Z,97123.28
2023-03-01T04:33:38.298Z,97113.09
2023-03-01T04:38:30.039Z,97127.47
2023-03-01T04:43:21.712Z,97116.78
2023-03-01T05:08:43.734Z,97105.97
2023-03-01T05:29:02.819Z,97096.25
2023-03-01T06:35:20.269Z,97068.34
2023-03-01T06:40:18.486Z,97070.63
2023-03-01T07:10:45.749Z,97079.50
2023-03-01T07:41:37.647Z,97066.59
2023-03-01T07:51:54.840Z,97064.31
2023-03-01T08:27:28.970Z,97042.81
2023-03-01T08:37:31.426Z,97047.19
2023-03-01T13:11:05.226Z,96897.56
2023-03-01T13:36:41.166Z,96866.28
2023-03-01T13:41:49.310Z,96882.16
2023-03-01T14:23:56.337Z,96888.16
2023-03-01T15:05:50.303Z,96856.84
2023-03-01T16:39:23.463Z,96858.78
2023-03-01T16:44:21.052Z,96848.63
2023-03-01T17:24:56.474Z,96889.34
2023-03-01T17:34:54.773Z,96884.00
2023-03-01T18:10:34.760Z,96885.84
2023-03-01T18:35:54.483Z,96891.56
2023-03-01T18:46:14.809Z,96886.16
2023-03-01T18:51:18.550Z,96871.84
2023-03-01T19:11:56.186Z,96855.22
2023-03-01T19:16:49.809Z,96846.22
2023-03-01T19:26:50.630Z,96833.84
2023-03-01T19:31:43.000Z,96827.81
2023-03-01T19:36:35.859Z,96829.31
2023-03-01T19:56:48.589Z,96805.19
2023-03-01T20:01:45.475Z,96805.72
2023-03-01T20:06:39.176Z,96800.72
2023-03-01T20:16:43.818Z,96785.09
2023-03-01T20:21:41.125Z,96785.53
2023-03-01T20:26:35.343Z,96782.22
2023-03-01T20:31:30.328Z,96787.84
2023-03-01T20:41:29.745Z,96775.59
2023-03-01T20:46:25.170Z,96771.25
2023-03-01T20:51:18.704Z,96774.09
2023-03-01T20:56:22.308Z,96771.31
2023-03-01T21:01:22.047Z,96763.38
2023-03-01T21:11:22.088Z,96753.44
2023-03-01T21:21:27.462Z,96754.53
2023-03-01T21:26:27.249Z,96746.56
2023-03-01T21:31:27.856Z,96752.47
2023-03-01T21:36:22.280Z,96748.09
2023-03-01T21:41:19.566Z,96745.75
2023-03-01T21:46:16.921Z,96736.81
2023-03-01T21:51:11.566Z,96725.47
2023-03-01T21:56:10.866Z,96723.38
2023-03-01T22:01:13.741Z,96721.97
2023-03-01T22:06:07.001Z,96707.06
2023-03-01T22:11:03.022Z,96710.81
2023-03-01T22:15:55.875Z,96709.38
2023-03-01T22:20:48.220Z,96703.03
2023-03-01T22:25:43.250Z,96702.38
2023-03-01T22:30:36.170Z,96699.84
2023-03-01T22:35:28.228Z,96696.16
2023-03-01T22:40:20.353Z,96690.19
2023-03-01T22:45:12.866Z,96685.25
2023-03-01T22:50:09.054Z,96686.78
2023-03-01T22:55:09.477Z,96691.44
2023-03-01T23:00:02.407Z,96694.91
2023-03-01T23:04:54.728Z,96694.72
2023-03-01T23:09:48.870Z,96695.88
2023-03-01T23:14:46.844Z,96686.50
2023-03-01T23:19:39.194Z,96688.03
2023-03-01T23:24:33.842Z,96683.31
2023-03-01T23:29:27.474Z,96679.63
2023-03-01T23:34:21.491Z,96668.28
2023-03-01T23:39:16.463Z,96676.13
2023-03-01T23:44:08.852Z,96673.91
2023-03-01T23:49:01.573Z,96669.06
2023-03-01T23:54:02.299Z,96677.94
2023-03-01T23:59:04.948Z,96667.13
